sensor_id;sensor_type;location;lat;lon;timestamp;P1;durP1;ratioP1;P2;durP2;ratioP2
61116;SDS011;47002;50.856;6.580;2022-07-22T00:01:00;0.00;;;0.00;;
61116;SDS011;47002;50.856;6.580;2022-07-22T00:03:25;0.00;;;0.00;;
61116;SDS011;47002;50.856;6.580;2022-07-22T00:05:51;0.00;;;0.00;;
61116;SDS011;47002;50.856;6.580;2022-07-22T00:08:17;0.00;;;0.00;;
61116;SDS011;47002;50.856;6.580;2022-07-22T00:10:44;0.00;;;0.00;;
61116;SDS011;47002;50.856;6.580;2022-07-22T00:13:10;0.00;;;0.00;;
61116;SDS011;47002;50.856;6.580;2022-07-22T00:15:35;0.00;;;0.00;;
61116;SDS011;47002;50.856;6.580;2022-07-22T00:18:01;0.00;;;0.00;;
61116;SDS011;47002;50.856;6.580;2022-07-22T00:20:27;0.00;;;0.00;;
61116;SDS011;47002;50.856;6.580;2022-07-22T00:22:53;0.00;;;0.00;;
61116;SDS011;47002;50.856;6.580;2022-07-22T00:25:18;0.00;;;0.00;;
61116;SDS011;47002;50.856;6.580;2022-07-22T00:27:45;0.00;;;0.00;;
61116;SDS011;47002;50.856;6.580;2022-07-22T00:30:11;0.00;;;0.00;;
61116;SDS011;47002;50.856;6.580;2022-07-22T00:32:38;0.00;;;0.00;;
61116;SDS011;47002;50.856;6.580;2022-07-22T00:35:04;0.00;;;0.00;;
61116;SDS011;47002;50.856;6.580;2022-07-22T00:37:30;0.00;;;0.00;;
61116;SDS011;47002;50.856;6.580;2022-07-22T00:39:56;0.00;;;0.00;;
61116;SDS011;47002;50.856;6.580;2022-07-22T00:42:22;0.00;;;0.00;;
61116;SDS011;47002;50.856;6.580;2022-07-22T00:44:49;0.00;;;0.00;;
61116;SDS011;47002;50.856;6.580;2022-07-22T00:47:15;0.00;;;0.00;;
61116;SDS011;47002;50.856;6.580;2022-07-22T00:49:40;0.00;;;0.00;;
61116;SDS011;47002;50.856;6.580;2022-07-22T00:52:06;0.00;;;0.00;;
61116;SDS011;47002;50.856;6.580;2022-07-22T00:54:32;0.00;;;0.00;;
61116;SDS011;47002;50.856;6.580;2022-07-22T00:56:59;0.00;;;0.00;;
61116;SDS011;47002;50.856;6.580;2022-07-22T00:59:25;0.00;;;0.00;;
61116;SDS011;47002;50.856;6.580;2022-07-22T01:01:52;0.00;;;0.00;;
61116;SDS011;47002;50.856;6.580;2022-07-22T01:04:18;0.00;;;0.00;;
61116;SDS011;47002;50.856;6.580;2022-07-22T01:06:43;0.00;;;0.00;;
61116;SDS011;47002;50.856;6.580;2022-07-22T01:09:10;0.00;;;0.00;;
61116;SDS011;47002;50.856;6.580;2022-07-22T01:11:36;0.00;;;0.00;;
61116;SDS011;47002;50.856;6.580;2022-07-22T01:14:02;0.00;;;0.00;;
61116;SDS011;47002;50.856;6.580;2022-07-22T01:16:28;0.00;;;0.00;;
61116;SDS011;47002;50.856;6.580;2022-07-22T01:18:56;0.00;;;0.00;;
61116;SDS011;47002;50.856;6.580;2022-07-22T01:21:23;0.00;;;0.00;;
61116;SDS011;47002;50.856;6.580;2022-07-22T01:23:49;0.00;;;0.00;;
61116;SDS011;47002;50.856;6.580;2022-07-22T01:26:15;0.00;;;0.00;;
61116;SDS011;47002;50.856;6.580;2022-07-22T01:28:41;0.00;;;0.00;;
61116;SDS011;47002;50.856;6.580;2022-07-22T01:31:07;0.00;;;0.00;;
61116;SDS011;47002;50.856;6.580;2022-07-22T01:33:33;0.00;;;0.00;;
61116;SDS011;47002;50.856;6.580;2022-07-22T01:35:59;0.00;;;0.00;;
61116;SDS011;47002;50.856;6.580;2022-07-22T01:38:26;0.00;;;0.00;;
61116;SDS011;47002;50.856;6.580;2022-07-22T01:40:52;0.00;;;0.00;;
61116;SDS011;47002;50.856;6.580;2022-07-22T01:43:18;0.00;;;0.00;;
61116;SDS011;47002;50.856;6.580;2022-07-22T01:45:44;0.00;;;0.00;;
61116;SDS011;47002;50.856;6.580;2022-07-22T01:48:10;0.00;;;0.00;;
61116;SDS011;47002;50.856;6.580;2022-07-22T01:50:36;0.00;;;0.00;;
61116;SDS011;47002;50.856;6.580;2022-07-22T01:53:02;0.00;;;0.00;;
61116;SDS011;47002;50.856;6.580;2022-07-22T01:55:29;0.00;;;0.00;;
61116;SDS011;47002;50.856;6.580;2022-07-22T01:57:55;0.00;;;0.00;;
61116;SDS011;47002;50.856;6.580;2022-07-22T02:00:21;0.00;;;0.00;;
61116;SDS011;47002;50.856;6.580;2022-07-22T02:02:46;0.00;;;0.00;;
61116;SDS011;47002;50.856;6.580;2022-07-22T02:05:12;0.00;;;0.00;;
61116;SDS011;47002;50.856;6.580;2022-07-22T02:07:38;0.00;;;0.00;;
61116;SDS011;47002;50.856;6.580;2022-07-22T02:10:04;0.00;;;0.00;;
61116;SDS011;47002;50.856;6.580;2022-07-22T02:12:32;0.00;;;0.00;;
61116;SDS011;47002;50.856;6.580;2022-07-22T02:14:58;0.00;;;0.00;;
61116;SDS011;47002;50.856;6.580;2022-07-22T02:17:23;0.00;;;0.00;;
61116;SDS011;47002;50.856;6.580;2022-07-22T02:19:49;0.00;;;0.00;;
61116;SDS011;47002;50.856;6.580;2022-07-22T02:22:15;0.00;;;0.00;;
61116;SDS011;47002;50.856;6.580;2022-07-22T02:24:41;0.00;;;0.00;;
61116;SDS011;47002;50.856;6.580;2022-07-22T02:27:06;0.00;;;0.00;;
61116;SDS011;47002;50.856;6.580;2022-07-22T02:29:33;0.00;;;0.00;;
61116;SDS011;47002;50.856;6.580;2022-07-22T02:31:59;0.00;;;0.00;;
61116;SDS011;47002;50.856;6.580;2022-07-22T02:34:25;0.00;;;0.00;;
61116;SDS011;47002;50.856;6.580;2022-07-22T02:36:51;0.00;;;0.00;;
61116;SDS011;47002;50.856;6.580;2022-07-22T02:39:17;0.00;;;0.00;;
61116;SDS011;47002;50.856;6.580;2022-07-22T02:41:43;0.00;;;0.00;;
61116;SDS011;47002;50.856;6.580;2022-07-22T02:44:08;0.00;;;0.00;;
61116;SDS011;47002;50.856;6.580;2022-07-22T02:46:36;0.00;;;0.00;;
61116;SDS011;47002;50.856;6.580;2022-07-22T02:49:02;0.00;;;0.00;;
61116;SDS011;47002;50.856;6.580;2022-07-22T02:51:27;0.00;;;0.00;;
61116;SDS011;47002;50.856;6.580;2022-07-22T02:53:53;0.00;;;0.00;;
61116;SDS011;47002;50.856;6.580;2022-07-22T02:56:19;0.00;;;0.00;;
61116;SDS011;47002;50.856;6.580;2022-07-22T02:58:45;0.00;;;0.00;;
61116;SDS011;47002;50.856;6.580;2022-07-22T03:01:10;0.00;;;0.00;;
61116;SDS011;47002;50.856;6.580;2022-07-22T03:03:38;0.00;;;0.00;;
61116;SDS011;47002;50.856;6.580;2022-07-22T03:06:04;0.00;;;0.00;;
61116;SDS011;47002;50.856;6.580;2022-07-22T03:08:30;0.00;;;0.00;;
61116;SDS011;47002;50.856;6.580;2022-07-22T03:10:56;0.00;;;0.00;;
61116;SDS011;47002;50.856;6.580;2022-07-22T03:13:21;0.00;;;0.00;;
61116;SDS011;47002;50.856;6.580;2022-07-22T03:15:47;0.00;;;0.00;;
61116;SDS011;47002;50.856;6.580;2022-07-22T03:18:13;0.00;;;0.00;;
61116;SDS011;47002;50.856;6.580;2022-07-22T03:20:40;0.00;;;0.00;;
61116;SDS011;47002;50.856;6.580;2022-07-22T03:23:06;0.00;;;0.00;;
61116;SDS011;47002;50.856;6.580;2022-07-22T03:25:32;0.00;;;0.00;;
61116;SDS011;47002;50.856;6.580;2022-07-22T03:27:57;0.00;;;0.00;;
61116;SDS011;47002;50.856;6.580;2022-07-22T03:30:23;0.00;;;0.00;;
61116;SDS011;47002;50.856;6.580;2022-07-22T03:32:49;0.00;;;0.00;;
61116;SDS011;47002;50.856;6.580;2022-07-22T03:35:15;0.00;;;0.00;;
61116;SDS011;47002;50.856;6.580;2022-07-22T03:37:42;0.00;;;0.00;;
61116;SDS011;47002;50.856;6.580;2022-07-22T03:40:09;0.00;;;0.00;;
61116;SDS011;47002;50.856;6.580;2022-07-22T03:42:35;0.00;;;0.00;;
61116;SDS011;47002;50.856;6.580;2022-07-22T03:45:01;0.00;;;0.00;;
61116;SDS011;47002;50.856;6.580;2022-07-22T03:47:27;0.00;;;0.00;;
61116;SDS011;47002;50.856;6.580;2022-07-22T03:49:53;0.00;;;0.00;;
61116;SDS011;47002;50.856;6.580;2022-07-22T03:52:19;0.00;;;0.00;;
61116;SDS011;47002;50.856;6.580;2022-07-22T03:54:46;0.00;;;0.00;;
61116;SDS011;47002;50.856;6.580;2022-07-22T03:57:12;0.00;;;0.00;;
61116;SDS011;47002;50.856;6.580;2022-07-22T03:59:37;0.00;;;0.00;;
61116;SDS011;47002;50.856;6.580;2022-07-22T04:02:03;0.00;;;0.00;;
61116;SDS011;47002;50.856;6.580;2022-07-22T04:04:29;0.00;;;0.00;;
61116;SDS011;47002;50.856;6.580;2022-07-22T04:06:55;0.00;;;0.00;;
61116;SDS011;47002;50.856;6.580;2022-07-22T04:09:21;0.00;;;0.00;;
61116;SDS011;47002;50.856;6.580;2022-07-22T04:11:48;0.00;;;0.00;;
61116;SDS011;47002;50.856;6.580;2022-07-22T04:14:14;0.00;;;0.00;;
61116;SDS011;47002;50.856;6.580;2022-07-22T04:16:40;0.00;;;0.00;;
61116;SDS011;47002;50.856;6.580;2022-07-22T04:19:05;0.00;;;0.00;;
61116;SDS011;47002;50.856;6.580;2022-07-22T04:21:31;0.00;;;0.00;;
61116;SDS011;47002;50.856;6.580;2022-07-22T04:23:57;0.00;;;0.00;;
61116;SDS011;47002;50.856;6.580;2022-07-22T04:26:23;0.00;;;0.00;;
61116;SDS011;47002;50.856;6.580;2022-07-22T04:28:50;0.00;;;0.00;;
61116;SDS011;47002;50.856;6.580;2022-07-22T04:31:15;0.00;;;0.00;;
61116;SDS011;47002;50.856;6.580;2022-07-22T04:33:41;0.00;;;0.00;;
61116;SDS011;47002;50.856;6.580;2022-07-22T04:36:07;0.00;;;0.00;;
61116;SDS011;47002;50.856;6.580;2022-07-22T04:38:33;0.00;;;0.00;;
61116;SDS011;47002;50.856;6.580;2022-07-22T04:40:58;0.00;;;0.00;;
61116;SDS011;47002;50.856;6.580;2022-07-22T04:43:24;0.00;;;0.00;;
61116;SDS011;47002;50.856;6.580;2022-07-22T04:45:51;0.00;;;0.00;;
61116;SDS011;47002;50.856;6.580;2022-07-22T04:48:17;0.00;;;0.00;;
61116;SDS011;47002;50.856;6.580;2022-07-22T04:50:43;0.00;;;0.00;;
61116;SDS011;47002;50.856;6.580;2022-07-22T04:53:09;0.00;;;0.00;;
61116;SDS011;47002;50.856;6.580;2022-07-22T04:55:35;0.00;;;0.00;;
61116;SDS011;47002;50.856;6.580;2022-07-22T04:58:01;0.00;;;0.00;;
61116;SDS011;47002;50.856;6.580;2022-07-22T05:00:26;0.00;;;0.00;;
61116;SDS011;47002;50.856;6.580;2022-07-22T05:02:54;0.00;;;0.00;;
61116;SDS011;47002;50.856;6.580;2022-07-22T05:05:20;0.00;;;0.00;;
61116;SDS011;47002;50.856;6.580;2022-07-22T05:07:45;0.00;;;0.00;;
61116;SDS011;47002;50.856;6.580;2022-07-22T05:10:11;0.00;;;0.00;;
61116;SDS011;47002;50.856;6.580;2022-07-22T05:12:37;0.00;;;0.00;;
61116;SDS011;47002;50.856;6.580;2022-07-22T05:15:03;0.00;;;0.00;;
61116;SDS011;47002;50.856;6.580;2022-07-22T05:17:29;0.00;;;0.00;;
61116;SDS011;47002;50.856;6.580;2022-07-22T05:19:56;0.00;;;0.00;;
61116;SDS011;47002;50.856;6.580;2022-07-22T05:22:22;0.00;;;0.00;;
61116;SDS011;47002;50.856;6.580;2022-07-22T05:24:47;0.00;;;0.00;;
61116;SDS011;47002;50.856;6.580;2022-07-22T05:27:13;0.00;;;0.00;;
61116;SDS011;47002;50.856;6.580;2022-07-22T05:29:39;0.00;;;0.00;;
61116;SDS011;47002;50.856;6.580;2022-07-22T05:32:05;0.00;;;0.00;;
61116;SDS011;47002;50.856;6.580;2022-07-22T05:34:30;0.00;;;0.00;;
61116;SDS011;47002;50.856;6.580;2022-07-22T05:36:57;0.00;;;0.00;;
61116;SDS011;47002;50.856;6.580;2022-07-22T05:39:23;0.00;;;0.00;;
61116;SDS011;47002;50.856;6.580;2022-07-22T05:41:49;0.00;;;0.00;;
61116;SDS011;47002;50.856;6.580;2022-07-22T05:44:14;0.00;;;0.00;;
61116;SDS011;47002;50.856;6.580;2022-07-22T05:46:40;0.00;;;0.00;;
61116;SDS011;47002;50.856;6.580;2022-07-22T05:49:07;0.00;;;0.00;;
61116;SDS011;47002;50.856;6.580;2022-07-22T05:51:32;0.00;;;0.00;;
61116;SDS011;47002;50.856;6.580;2022-07-22T05:53:59;0.00;;;0.00;;
61116;SDS011;47002;50.856;6.580;2022-07-22T05:56:25;0.00;;;0.00;;
61116;SDS011;47002;50.856;6.580;2022-07-22T05:58:51;0.00;;;0.00;;
61116;SDS011;47002;50.856;6.580;2022-07-22T06:01:16;0.00;;;0.00;;
61116;SDS011;47002;50.856;6.580;2022-07-22T06:03:42;0.00;;;0.00;;
61116;SDS011;47002;50.856;6.580;2022-07-22T06:06:08;0.00;;;0.00;;
61116;SDS011;47002;50.856;6.580;2022-07-22T06:08:34;0.00;;;0.00;;
61116;SDS011;47002;50.856;6.580;2022-07-22T06:11:01;0.00;;;0.00;;
61116;SDS011;47002;50.856;6.580;2022-07-22T06:13:28;0.00;;;0.00;;
61116;SDS011;47002;50.856;6.580;2022-07-22T06:15:53;0.00;;;0.00;;
61116;SDS011;47002;50.856;6.580;2022-07-22T06:18:19;0.00;;;0.00;;
61116;SDS011;47002;50.856;6.580;2022-07-22T06:20:45;0.00;;;0.00;;
61116;SDS011;47002;50.856;6.580;2022-07-22T06:23:11;0.00;;;0.00;;
61116;SDS011;47002;50.856;6.580;2022-07-22T06:25:37;0.00;;;0.00;;
61116;SDS011;47002;50.856;6.580;2022-07-22T06:28:04;0.00;;;0.00;;
61116;SDS011;47002;50.856;6.580;2022-07-22T06:30:30;0.00;;;0.00;;
61116;SDS011;47002;50.856;6.580;2022-07-22T06:32:55;0.00;;;0.00;;
61116;SDS011;47002;50.856;6.580;2022-07-22T06:35:21;0.00;;;0.00;;
61116;SDS011;47002;50.856;6.580;2022-07-22T06:37:47;0.00;;;0.00;;
61116;SDS011;47002;50.856;6.580;2022-07-22T06:40:13;0.00;;;0.00;;
61116;SDS011;47002;50.856;6.580;2022-07-22T06:42:38;0.00;;;0.00;;
61116;SDS011;47002;50.856;6.580;2022-07-22T06:45:06;0.00;;;0.00;;
61116;SDS011;47002;50.856;6.580;2022-07-22T06:47:32;0.00;;;0.00;;
61116;SDS011;47002;50.856;6.580;2022-07-22T06:49:58;0.00;;;0.00;;
61116;SDS011;47002;50.856;6.580;2022-07-22T06:52:24;0.00;;;0.00;;
61116;SDS011;47002;50.856;6.580;2022-07-22T06:54:49;0.00;;;0.00;;
61116;SDS011;47002;50.856;6.580;2022-07-22T06:57:15;0.00;;;0.00;;
61116;SDS011;47002;50.856;6.580;2022-07-22T06:59:41;0.00;;;0.00;;
61116;SDS011;47002;50.856;6.580;2022-07-22T07:02:08;0.00;;;0.00;;
61116;SDS011;47002;50.856;6.580;2022-07-22T07:04:33;0.00;;;0.00;;
61116;SDS011;47002;50.856;6.580;2022-07-22T07:06:59;0.00;;;0.00;;
61116;SDS011;47002;50.856;6.580;2022-07-22T07:09:25;0.00;;;0.00;;
61116;SDS011;47002;50.856;6.580;2022-07-22T07:11:50;0.00;;;0.00;;
61116;SDS011;47002;50.856;6.580;2022-07-22T07:14:16;0.00;;;0.00;;
61116;SDS011;47002;50.856;6.580;2022-07-22T07:16:42;0.00;;;0.00;;
61116;SDS011;47002;50.856;6.580;2022-07-22T07:19:09;0.00;;;0.00;;
61116;SDS011;47002;50.856;6.580;2022-07-22T07:21:34;0.00;;;0.00;;
61116;SDS011;47002;50.856;6.580;2022-07-22T07:24:00;0.00;;;0.00;;
61116;SDS011;47002;50.856;6.580;2022-07-22T07:26:26;0.00;;;0.00;;
61116;SDS011;47002;50.856;6.580;2022-07-22T07:28:51;0.00;;;0.00;;
61116;SDS011;47002;50.856;6.580;2022-07-22T07:31:17;0.00;;;0.00;;
61116;SDS011;47002;50.856;6.580;2022-07-22T07:33:43;0.00;;;0.00;;
61116;SDS011;47002;50.856;6.580;2022-07-22T07:36:10;0.00;;;0.00;;
61116;SDS011;47002;50.856;6.580;2022-07-22T07:38:36;0.00;;;0.00;;
61116;SDS011;47002;50.856;6.580;2022-07-22T07:41:02;0.00;;;0.00;;
61116;SDS011;47002;50.856;6.580;2022-07-22T07:43:27;0.00;;;0.00;;
61116;SDS011;47002;50.856;6.580;2022-07-22T07:45:53;0.00;;;0.00;;
61116;SDS011;47002;50.856;6.580;2022-07-22T07:48:19;0.00;;;0.00;;
61116;SDS011;47002;50.856;6.580;2022-07-22T07:50:45;0.00;;;0.00;;
61116;SDS011;47002;50.856;6.580;2022-07-22T07:53:14;0.00;;;0.00;;
61116;SDS011;47002;50.856;6.580;2022-07-22T07:55:40;0.00;;;0.00;;
61116;SDS011;47002;50.856;6.580;2022-07-22T07:58:05;0.00;;;0.00;;
61116;SDS011;47002;50.856;6.580;2022-07-22T08:00:31;0.00;;;0.00;;
61116;SDS011;47002;50.856;6.580;2022-07-22T08:02:57;0.00;;;0.00;;
61116;SDS011;47002;50.856;6.580;2022-07-22T08:05:23;0.00;;;0.00;;
61116;SDS011;47002;50.856;6.580;2022-07-22T08:07:49;0.00;;;0.00;;
61116;SDS011;47002;50.856;6.580;2022-07-22T08:10:16;0.00;;;0.00;;
61116;SDS011;47002;50.856;6.580;2022-07-22T08:12:42;0.00;;;0.00;;
61116;SDS011;47002;50.856;6.580;2022-07-22T08:15:08;0.00;;;0.00;;
61116;SDS011;47002;50.856;6.580;2022-07-22T08:17:34;0.00;;;0.00;;
61116;SDS011;47002;50.856;6.580;2022-07-22T08:20:00;0.00;;;0.00;;
61116;SDS011;47002;50.856;6.580;2022-07-22T08:22:25;0.00;;;0.00;;
61116;SDS011;47002;50.856;6.580;2022-07-22T08:24:51;0.00;;;0.00;;
61116;SDS011;47002;50.856;6.580;2022-07-22T08:27:18;0.00;;;0.00;;
61116;SDS011;47002;50.856;6.580;2022-07-22T08:29:44;0.00;;;0.00;;
61116;SDS011;47002;50.856;6.580;2022-07-22T08:32:10;0.00;;;0.00;;
61116;SDS011;47002;50.856;6.580;2022-07-22T08:34:35;0.00;;;0.00;;
61116;SDS011;47002;50.856;6.580;2022-07-22T08:37:01;0.00;;;0.00;;
61116;SDS011;47002;50.856;6.580;2022-07-22T08:39:27;0.00;;;0.00;;
61116;SDS011;47002;50.856;6.580;2022-07-22T08:41:52;0.00;;;0.00;;
61116;SDS011;47002;50.856;6.580;2022-07-22T08:44:22;0.00;;;0.00;;
61116;SDS011;47002;50.856;6.580;2022-07-22T08:46:48;0.00;;;0.00;;
61116;SDS011;47002;50.856;6.580;2022-07-22T08:49:14;0.00;;;0.00;;
61116;SDS011;47002;50.856;6.580;2022-07-22T08:51:40;0.00;;;0.00;;
61116;SDS011;47002;50.856;6.580;2022-07-22T08:54:06;0.00;;;0.00;;
61116;SDS011;47002;50.856;6.580;2022-07-22T08:56:31;0.00;;;0.00;;
61116;SDS011;47002;50.856;6.580;2022-07-22T08:58:57;0.00;;;0.00;;
61116;SDS011;47002;50.856;6.580;2022-07-22T09:01:24;0.00;;;0.00;;
61116;SDS011;47002;50.856;6.580;2022-07-22T09:03:51;0.00;;;0.00;;
61116;SDS011;47002;50.856;6.580;2022-07-22T09:06:18;0.00;;;0.00;;
61116;SDS011;47002;50.856;6.580;2022-07-22T09:08:51;0.00;;;0.00;;
61116;SDS011;47002;50.856;6.580;2022-07-22T09:11:18;0.00;;;0.00;;
61116;SDS011;47002;50.856;6.580;2022-07-22T09:13:45;0.00;;;0.00;;
61116;SDS011;47002;50.856;6.580;2022-07-22T09:16:12;0.00;;;0.00;;
61116;SDS011;47002;50.856;6.580;2022-07-22T09:18:46;0.00;;;0.00;;
61116;SDS011;47002;50.856;6.580;2022-07-22T09:21:13;0.00;;;0.00;;
61116;SDS011;47002;50.856;6.580;2022-07-22T09:23:39;0.00;;;0.00;;
61116;SDS011;47002;50.856;6.580;2022-07-22T09:26:06;0.00;;;0.00;;
61116;SDS011;47002;50.856;6.580;2022-07-22T09:28:32;0.00;;;0.00;;
61116;SDS011;47002;50.856;6.580;2022-07-22T09:30:58;0.00;;;0.00;;
61116;SDS011;47002;50.856;6.580;2022-07-22T09:33:23;0.00;;;0.00;;
61116;SDS011;47002;50.856;6.580;2022-07-22T09:35:51;0.00;;;0.00;;
61116;SDS011;47002;50.856;6.580;2022-07-22T09:38:27;0.00;;;0.00;;
61116;SDS011;47002;50.856;6.580;2022-07-22T09:40:53;0.00;;;0.00;;
61116;SDS011;47002;50.856;6.580;2022-07-22T09:43:20;0.00;;;0.00;;
61116;SDS011;47002;50.856;6.580;2022-07-22T09:45:46;0.00;;;0.00;;
61116;SDS011;47002;50.856;6.580;2022-07-22T09:48:13;0.00;;;0.00;;
61116;SDS011;47002;50.856;6.580;2022-07-22T09:50:41;0.00;;;0.00;;
61116;SDS011;47002;50.856;6.580;2022-07-22T09:53:08;0.00;;;0.00;;
61116;SDS011;47002;50.856;6.580;2022-07-22T09:55:33;0.00;;;0.00;;
61116;SDS011;47002;50.856;6.580;2022-07-22T09:57:59;0.00;;;0.00;;
61116;SDS011;47002;50.856;6.580;2022-07-22T10:00:25;0.00;;;0.00;;
61116;SDS011;47002;50.856;6.580;2022-07-22T10:02:53;0.00;;;0.00;;
61116;SDS011;47002;50.856;6.580;2022-07-22T10:05:25;0.00;;;0.00;;
61116;SDS011;47002;50.856;6.580;2022-07-22T10:07:52;0.00;;;0.00;;
61116;SDS011;47002;50.856;6.580;2022-07-22T10:10:21;0.00;;;0.00;;
61116;SDS011;47002;50.856;6.580;2022-07-22T10:12:49;0.00;;;0.00;;
61116;SDS011;47002;50.856;6.580;2022-07-22T10:15:16;0.00;;;0.00;;
61116;SDS011;47002;50.856;6.580;2022-07-22T10:17:43;0.10;;;0.00;;
61116;SDS011;47002;50.856;6.580;2022-07-22T10:20:11;0.00;;;0.00;;
61116;SDS011;47002;50.856;6.580;2022-07-22T10:22:50;0.00;;;0.00;;
61116;SDS011;47002;50.856;6.580;2022-07-22T10:25:18;0.00;;;0.00;;
61116;SDS011;47002;50.856;6.580;2022-07-22T10:27:47;0.00;;;0.00;;
61116;SDS011;47002;50.856;6.580;2022-07-22T10:30:15;0.05;;;0.05;;
61116;SDS011;47002;50.856;6.580;2022-07-22T10:32:42;0.00;;;0.00;;
61116;SDS011;47002;50.856;6.580;2022-07-22T10:35:21;0.00;;;0.00;;
61116;SDS011;47002;50.856;6.580;2022-07-22T10:37:48;0.00;;;0.00;;
61116;SDS011;47002;50.856;6.580;2022-07-22T10:40:16;0.00;;;0.00;;
61116;SDS011;47002;50.856;6.580;2022-07-22T10:45:30;0.00;;;0.00;;
61116;SDS011;47002;50.856;6.580;2022-07-22T10:47:59;0.00;;;0.00;;
61116;SDS011;47002;50.856;6.580;2022-07-22T10:50:41;0.00;;;0.00;;
61116;SDS011;47002;50.856;6.580;2022-07-22T10:53:12;0.10;;;0.10;;
61116;SDS011;47002;50.856;6.580;2022-07-22T10:55:57;0.00;;;0.00;;
61116;SDS011;47002;50.856;6.580;2022-07-22T10:58:46;0.00;;;0.00;;
61116;SDS011;47002;50.856;6.580;2022-07-22T11:01:13;0.00;;;0.00;;
61116;SDS011;47002;50.856;6.580;2022-07-22T11:03:41;0.10;;;0.10;;
61116;SDS011;47002;50.856;6.580;2022-07-22T11:06:12;0.00;;;0.00;;
61116;SDS011;47002;50.856;6.580;2022-07-22T11:08:39;0.00;;;0.00;;
61116;SDS011;47002;50.856;6.580;2022-07-22T11:11:05;0.00;;;0.00;;
61116;SDS011;47002;50.856;6.580;2022-07-22T11:13:31;0.10;;;0.10;;
61116;SDS011;47002;50.856;6.580;2022-07-22T11:18:46;0.08;;;0.08;;
61116;SDS011;47002;50.856;6.580;2022-07-22T11:21:17;0.10;;;0.10;;
61116;SDS011;47002;50.856;6.580;2022-07-22T11:23:44;0.10;;;0.10;;
61116;SDS011;47002;50.856;6.580;2022-07-22T11:26:13;0.10;;;0.10;;
61116;SDS011;47002;50.856;6.580;2022-07-22T11:28:39;0.10;;;0.10;;
61116;SDS011;47002;50.856;6.580;2022-07-22T11:31:05;0.10;;;0.10;;
61116;SDS011;47002;50.856;6.580;2022-07-22T11:33:33;0.10;;;0.10;;
61116;SDS011;47002;50.856;6.580;2022-07-22T11:36:02;0.10;;;0.10;;
61116;SDS011;47002;50.856;6.580;2022-07-22T11:38:38;0.10;;;0.10;;
61116;SDS011;47002;50.856;6.580;2022-07-22T11:41:05;0.10;;;0.10;;
61116;SDS011;47002;50.856;6.580;2022-07-22T11:43:37;0.10;;;0.10;;
61116;SDS011;47002;50.856;6.580;2022-07-22T11:46:03;0.10;;;0.10;;
61116;SDS011;47002;50.856;6.580;2022-07-22T11:48:29;0.10;;;0.10;;
61116;SDS011;47002;50.856;6.580;2022-07-22T11:50:59;0.10;;;0.10;;
61116;SDS011;47002;50.856;6.580;2022-07-22T11:53:26;0.10;;;0.10;;
61116;SDS011;47002;50.856;6.580;2022-07-22T11:55:55;0.10;;;0.10;;
61116;SDS011;47002;50.856;6.580;2022-07-22T11:58:32;0.10;;;0.10;;
61116;SDS011;47002;50.856;6.580;2022-07-22T12:00:59;0.10;;;0.10;;
61116;SDS011;47002;50.856;6.580;2022-07-22T12:03:24;0.10;;;0.10;;
61116;SDS011;47002;50.856;6.580;2022-07-22T12:05:50;0.10;;;0.10;;
61116;SDS011;47002;50.856;6.580;2022-07-22T12:08:18;0.10;;;0.10;;
61116;SDS011;47002;50.856;6.580;2022-07-22T12:10:44;0.10;;;0.10;;
61116;SDS011;47002;50.856;6.580;2022-07-22T12:13:10;0.10;;;0.10;;
61116;SDS011;47002;50.856;6.580;2022-07-22T12:15:36;0.10;;;0.10;;
61116;SDS011;47002;50.856;6.580;2022-07-22T12:18:15;0.10;;;0.10;;
61116;SDS011;47002;50.856;6.580;2022-07-22T12:20:45;0.10;;;0.10;;
61116;SDS011;47002;50.856;6.580;2022-07-22T12:23:11;0.10;;;0.10;;
61116;SDS011;47002;50.856;6.580;2022-07-22T12:25:50;0.10;;;0.10;;
61116;SDS011;47002;50.856;6.580;2022-07-22T12:28:17;0.10;;;0.10;;
61116;SDS011;47002;50.856;6.580;2022-07-22T12:30:43;0.10;;;0.10;;
61116;SDS011;47002;50.856;6.580;2022-07-22T12:33:12;0.20;;;0.20;;
61116;SDS011;47002;50.856;6.580;2022-07-22T12:35:38;0.10;;;0.10;;
61116;SDS011;47002;50.856;6.580;2022-07-22T12:38:05;0.10;;;0.10;;
61116;SDS011;47002;50.856;6.580;2022-07-22T12:40:32;0.15;;;0.15;;
61116;SDS011;47002;50.856;6.580;2022-07-22T12:43:00;0.20;;;0.20;;
61116;SDS011;47002;50.856;6.580;2022-07-22T12:45:28;0.10;;;0.10;;
61116;SDS011;47002;50.856;6.580;2022-07-22T12:47:56;0.20;;;0.20;;
61116;SDS011;47002;50.856;6.580;2022-07-22T12:50:31;0.20;;;0.20;;
61116;SDS011;47002;50.856;6.580;2022-07-22T12:52:59;0.20;;;0.20;;
61116;SDS011;47002;50.856;6.580;2022-07-22T12:55:26;0.10;;;0.10;;
61116;SDS011;47002;50.856;6.580;2022-07-22T12:57:52;0.10;;;0.10;;
61116;SDS011;47002;50.856;6.580;2022-07-22T13:00:20;0.10;;;0.10;;
61116;SDS011;47002;50.856;6.580;2022-07-22T13:02:47;0.20;;;0.20;;
61116;SDS011;47002;50.856;6.580;2022-07-22T13:05:13;0.20;;;0.20;;
61116;SDS011;47002;50.856;6.580;2022-07-22T13:07:38;0.20;;;0.20;;
61116;SDS011;47002;50.856;6.580;2022-07-22T13:10:05;0.20;;;0.20;;
61116;SDS011;47002;50.856;6.580;2022-07-22T13:12:31;0.20;;;0.20;;
61116;SDS011;47002;50.856;6.580;2022-07-22T13:14:57;0.20;;;0.20;;
61116;SDS011;47002;50.856;6.580;2022-07-22T13:17:24;0.20;;;0.20;;
61116;SDS011;47002;50.856;6.580;2022-07-22T13:19:50;0.20;;;0.20;;
61116;SDS011;47002;50.856;6.580;2022-07-22T13:22:15;0.20;;;0.20;;
61116;SDS011;47002;50.856;6.580;2022-07-22T13:24:41;0.20;;;0.20;;
61116;SDS011;47002;50.856;6.580;2022-07-22T13:27:07;0.20;;;0.20;;
61116;SDS011;47002;50.856;6.580;2022-07-22T13:29:32;0.20;;;0.20;;
61116;SDS011;47002;50.856;6.580;2022-07-22T13:31:58;0.20;;;0.20;;
61116;SDS011;47002;50.856;6.580;2022-07-22T13:34:25;0.20;;;0.20;;
61116;SDS011;47002;50.856;6.580;2022-07-22T13:36:51;0.20;;;0.20;;
61116;SDS011;47002;50.856;6.580;2022-07-22T13:39:17;0.20;;;0.20;;
61116;SDS011;47002;50.856;6.580;2022-07-22T13:41:43;0.20;;;0.20;;
61116;SDS011;47002;50.856;6.580;2022-07-22T13:44:08;0.30;;;0.30;;
61116;SDS011;47002;50.856;6.580;2022-07-22T13:46:34;0.30;;;0.30;;
61116;SDS011;47002;50.856;6.580;2022-07-22T13:49:00;0.30;;;0.30;;
61116;SDS011;47002;50.856;6.580;2022-07-22T13:51:27;0.40;;;0.40;;
61116;SDS011;47002;50.856;6.580;2022-07-22T13:53:53;0.40;;;0.40;;
61116;SDS011;47002;50.856;6.580;2022-07-22T13:56:19;0.40;;;0.40;;
61116;SDS011;47002;50.856;6.580;2022-07-22T13:58:45;0.40;;;0.40;;
61116;SDS011;47002;50.856;6.580;2022-07-22T14:01:11;0.40;;;0.40;;
61116;SDS011;47002;50.856;6.580;2022-07-22T14:03:37;0.40;;;0.40;;
61116;SDS011;47002;50.856;6.580;2022-07-22T14:06:03;0.47;;;0.47;;
61116;SDS011;47002;50.856;6.580;2022-07-22T14:08:31;0.50;;;0.50;;
61116;SDS011;47002;50.856;6.580;2022-07-22T14:10:57;0.50;;;0.50;;
61116;SDS011;47002;50.856;6.580;2022-07-22T14:13:23;0.50;;;0.50;;
61116;SDS011;47002;50.856;6.580;2022-07-22T14:15:48;0.43;;;0.43;;
61116;SDS011;47002;50.856;6.580;2022-07-22T14:18:14;0.45;;;0.45;;
61116;SDS011;47002;50.856;6.580;2022-07-22T14:20:40;0.50;;;0.50;;
61116;SDS011;47002;50.856;6.580;2022-07-22T14:23:06;0.50;;;0.50;;
61116;SDS011;47002;50.856;6.580;2022-07-22T14:25:34;0.50;;;0.50;;
61116;SDS011;47002;50.856;6.580;2022-07-22T14:28:00;0.50;;;0.50;;
61116;SDS011;47002;50.856;6.580;2022-07-22T14:30:26;0.50;;;0.50;;
61116;SDS011;47002;50.856;6.580;2022-07-22T14:32:51;0.50;;;0.50;;
61116;SDS011;47002;50.856;6.580;2022-07-22T14:35:17;0.50;;;0.50;;
61116;SDS011;47002;50.856;6.580;2022-07-22T14:37:43;0.52;;;0.50;;
61116;SDS011;47002;50.856;6.580;2022-07-22T14:40:09;0.50;;;0.50;;
61116;SDS011;47002;50.856;6.580;2022-07-22T14:42:37;0.50;;;0.50;;
61116;SDS011;47002;50.856;6.580;2022-07-22T14:45:03;0.50;;;0.50;;
61116;SDS011;47002;50.856;6.580;2022-07-22T14:47:29;0.50;;;0.50;;
61116;SDS011;47002;50.856;6.580;2022-07-22T14:49:55;0.50;;;0.50;;